sensor_id;sensor_type;location;lat;lon;timestamp;temperature;humidity
39483;DHT22;25682;48.438;1.482;2022-11-14T07:01:21;18.40;63.30
39483;DHT22;25682;48.438;1.482;2022-11-14T07:03:47;18.80;68.60
39483;DHT22;25682;48.438;1.482;2022-11-14T07:06:16;18.90;68.50
39483;DHT22;25682;48.438;1.482;2022-11-14T07:08:42;19.00;68.30
39483;DHT22;25682;48.438;1.482;2022-11-14T07:11:08;19.00;68.20
39483;DHT22;25682;48.438;1.482;2022-11-14T07:13:34;19.00;68.30
39483;DHT22;25682;48.438;1.482;2022-11-14T07:16:00;18.90;68.30
39483;DHT22;25682;48.438;1.482;2022-11-14T07:18:26;18.90;68.40
39483;DHT22;25682;48.438;1.482;2022-11-14T07:21:00;19.00;68.40
39483;DHT22;25682;48.438;1.482;2022-11-14T07:23:26;19.00;68.30
39483;DHT22;25682;48.438;1.482;2022-11-14T07:25:52;19.00;68.30
39483;DHT22;25682;48.438;1.482;2022-11-14T07:28:17;19.00;68.20
39483;DHT22;25682;48.438;1.482;2022-11-14T07:30:43;19.00;68.30
39483;DHT22;25682;48.438;1.482;2022-11-14T07:33:08;19.00;68.30
39483;DHT22;25682;48.438;1.482;2022-11-14T07:35:37;19.00;68.30
39483;DHT22;25682;48.438;1.482;2022-11-14T07:38:03;19.00;68.10
39483;DHT22;25682;48.438;1.482;2022-11-14T07:40:29;19.10;67.90
39483;DHT22;25682;48.438;1.482;2022-11-14T07:42:57;19.10;67.70
39483;DHT22;25682;48.438;1.482;2022-11-14T07:45:24;19.10;67.50
39483;DHT22;25682;48.438;1.482;2022-11-14T07:47:52;19.20;67.30
39483;DHT22;25682;48.438;1.482;2022-11-14T07:50:18;19.20;67.20
39483;DHT22;25682;48.438;1.482;2022-11-14T07:52:46;19.30;67.10
39483;DHT22;25682;48.438;1.482;2022-11-14T07:57:40;19.30;66.40
39483;DHT22;25682;48.438;1.482;2022-11-14T08:00:07;19.30;66.90
39483;DHT22;25682;48.438;1.482;2022-11-14T08:02:33;19.30;66.90
39483;DHT22;25682;48.438;1.482;2022-11-14T08:04:58;19.30;67.00
39483;DHT22;25682;48.438;1.482;2022-11-14T08:07:25;19.30;67.10
39483;DHT22;25682;48.438;1.482;2022-11-14T08:09:50;19.30;67.20
39483;DHT22;25682;48.438;1.482;2022-11-14T08:12:16;19.30;67.20
39483;DHT22;25682;48.438;1.482;2022-11-14T08:14:42;19.30;67.10
39483;DHT22;25682;48.438;1.482;2022-11-14T08:17:07;19.30;67.10
39483;DHT22;25682;48.438;1.482;2022-11-14T08:19:32;19.30;67.30
39483;DHT22;25682;48.438;1.482;2022-11-14T08:21:58;19.30;66.90
39483;DHT22;25682;48.438;1.482;2022-11-14T08:24:23;19.30;66.90
39483;DHT22;25682;48.438;1.482;2022-11-14T08:26:49;19.30;66.80
39483;DHT22;25682;48.438;1.482;2022-11-14T08:29:14;19.30;66.80
39483;DHT22;25682;48.438;1.482;2022-11-14T08:31:40;19.30;66.90
39483;DHT22;25682;48.438;1.482;2022-11-14T08:34:05;19.40;67.00
39483;DHT22;25682;48.438;1.482;2022-11-14T08:36:31;19.50;67.10
39483;DHT22;25682;48.438;1.482;2022-11-14T08:38:57;19.60;67.00
39483;DHT22;25682;48.438;1.482;2022-11-14T08:41:22;19.60;67.00
39483;DHT22;25682;48.438;1.482;2022-11-14T08:43:47;19.60;67.10
39483;DHT22;25682;48.438;1.482;2022-11-14T08:46:13;19.60;67.20
39483;DHT22;25682;48.438;1.482;2022-11-14T08:48:38;19.60;67.10
39483;DHT22;25682;48.438;1.482;2022-11-14T08:51:04;19.60;67.00
39483;DHT22;25682;48.438;1.482;2022-11-14T08:53:30;19.70;67.00
39483;DHT22;25682;48.438;1.482;2022-11-14T08:55:55;19.70;67.00
39483;DHT22;25682;48.438;1.482;2022-11-14T08:58:21;19.70;67.10
39483;DHT22;25682;48.438;1.482;2022-11-14T09:00:46;19.70;66.80
39483;DHT22;25682;48.438;1.482;2022-11-14T09:03:12;19.90;66.20
39483;DHT22;25682;48.438;1.482;2022-11-14T09:05:39;19.90;65.80
39483;DHT22;25682;48.438;1.482;2022-11-14T09:08:04;19.90;65.60
39483;DHT22;25682;48.438;1.482;2022-11-14T09:10:30;20.00;65.50
39483;DHT22;25682;48.438;1.482;2022-11-14T09:12:59;19.90;65.30
39483;DHT22;25682;48.438;1.482;2022-11-14T09:15:26;20.00;65.30
39483;DHT22;25682;48.438;1.482;2022-11-14T09:17:52;19.90;65.10
39483;DHT22;25682;48.438;1.482;2022-11-14T09:20:17;19.90;65.00
39483;DHT22;25682;48.438;1.482;2022-11-14T09:22:44;19.90;64.90
39483;DHT22;25682;48.438;1.482;2022-11-14T09:25:09;20.00;64.80
39483;DHT22;25682;48.438;1.482;2022-11-14T09:27:35;20.00;64.70
39483;DHT22;25682;48.438;1.482;2022-11-14T09:30:00;20.00;64.60
39483;DHT22;25682;48.438;1.482;2022-11-14T09:32:26;20.00;64.40
39483;DHT22;25682;48.438;1.482;2022-11-14T09:34:51;20.00;64.30
39483;DHT22;25682;48.438;1.482;2022-11-14T09:37:17;20.00;64.80
39483;DHT22;25682;48.438;1.482;2022-11-14T09:39:42;20.00;64.00
39483;DHT22;25682;48.438;1.482;2022-11-14T09:42:14;20.10;63.90
39483;DHT22;25682;48.438;1.482;2022-11-14T09:44:52;20.10;63.80
39483;DHT22;25682;48.438;1.482;2022-11-14T09:47:21;20.10;63.70
39483;DHT22;25682;48.438;1.482;2022-11-14T09:49:48;20.10;63.60
39483;DHT22;25682;48.438;1.482;2022-11-14T09:52:25;20.20;63.50
39483;DHT22;25682;48.438;1.482;2022-11-14T09:54:55;20.20;63.30
39483;DHT22;25682;48.438;1.482;2022-11-14T09:57:20;20.30;63.30
39483;DHT22;25682;48.438;1.482;2022-11-14T09:59:46;20.30;63.10
39483;DHT22;25682;48.438;1.482;2022-11-14T10:05:00;20.30;62.90
39483;DHT22;25682;48.438;1.482;2022-11-14T10:10:24;20.30;62.80
39483;DHT22;25682;48.438;1.482;2022-11-14T10:20:44;20.50;62.70
39483;DHT22;25682;48.438;1.482;2022-11-14T10:23:20;20.60;62.60
39483;DHT22;25682;48.438;1.482;2022-11-14T10:28:20;20.70;62.10
39483;DHT22;25682;48.438;1.482;2022-11-14T10:33:26;20.70;62.00
39483;DHT22;25682;48.438;1.482;2022-11-14T10:35:56;20.70;62.10
39483;DHT22;25682;48.438;1.482;2022-11-14T10:40:50;20.70;62.20
39483;DHT22;25682;48.438;1.482;2022-11-14T10:46:05;20.70;62.20
39483;DHT22;25682;48.438;1.482;2022-11-14T10:48:35;20.70;62.30
39483;DHT22;25682;48.438;1.482;2022-11-14T10:56:14;20.60;62.20
39483;DHT22;25682;48.438;1.482;2022-11-14T10:58:40;20.70;62.10
39483;DHT22;25682;48.438;1.482;2022-11-14T11:03:50;20.70;61.90
39483;DHT22;25682;48.438;1.482;2022-11-14T11:06:25;20.80;61.80
39483;DHT22;25682;48.438;1.482;2022-11-14T11:08:51;20.80;61.60
39483;DHT22;25682;48.438;1.482;2022-11-14T11:11:38;20.90;61.60
39483;DHT22;25682;48.438;1.482;2022-11-14T11:14:04;21.00;61.50
39483;DHT22;25682;48.438;1.482;2022-11-14T11:16:30;21.00;61.30
39483;DHT22;25682;48.438;1.482;2022-11-14T11:19:21;21.10;61.30
39483;DHT22;25682;48.438;1.482;2022-11-14T11:21:48;21.20;61.30
39483;DHT22;25682;48.438;1.482;2022-11-14T11:24:28;21.20;61.20
39483;DHT22;25682;48.438;1.482;2022-11-14T11:29:39;21.20;61.40
39483;DHT22;25682;48.438;1.482;2022-11-14T11:32:06;21.10;61.60
39483;DHT22;25682;48.438;1.482;2022-11-14T11:34:32;21.10;61.70
39483;DHT22;25682;48.438;1.482;2022-11-14T11:37:19;21.10;62.00
39483;DHT22;25682;48.438;1.482;2022-11-14T11:39:45;21.10;62.30
39483;DHT22;25682;48.438;1.482;2022-11-14T11:42:13;21.00;62.60
39483;DHT22;25682;48.438;1.482;2022-11-14T11:44:45;21.00;62.90
39483;DHT22;25682;48.438;1.482;2022-11-14T11:47:12;20.90;63.00
39483;DHT22;25682;48.438;1.482;2022-11-14T11:49:48;20.90;63.10
39483;DHT22;25682;48.438;1.482;2022-11-14T11:52:18;20.90;63.20
39483;DHT22;25682;48.438;1.482;2022-11-14T11:54:49;20.90;63.30
39483;DHT22;25682;48.438;1.482;2022-11-14T11:57:17;20.90;63.30
39483;DHT22;25682;48.438;1.482;2022-11-14T11:59:44;20.90;63.40
39483;DHT22;25682;48.438;1.482;2022-11-14T12:02:26;20.90;63.50
39483;DHT22;25682;48.438;1.482;2022-11-14T12:04:53;20.80;63.60
39483;DHT22;25682;48.438;1.482;2022-11-14T12:07:41;20.80;64.20
39483;DHT22;25682;48.438;1.482;2022-11-14T12:10:24;20.80;63.60
39483;DHT22;25682;48.438;1.482;2022-11-14T12:31:09;20.70;63.60
39483;DHT22;25682;48.438;1.482;2022-11-14T12:33:36;20.60;63.50
39483;DHT22;25682;48.438;1.482;2022-11-14T12:36:04;20.70;63.50
39483;DHT22;25682;48.438;1.482;2022-11-14T12:38:46;20.70;63.50
39483;DHT22;25682;48.438;1.482;2022-11-14T12:41:24;20.60;63.40
39483;DHT22;25682;48.438;1.482;2022-11-14T12:43:50;20.70;63.40
39483;DHT22;25682;48.438;1.482;2022-11-14T12:46:15;20.60;63.40
39483;DHT22;25682;48.438;1.482;2022-11-14T12:48:41;20.60;63.30
39483;DHT22;25682;48.438;1.482;2022-11-14T12:51:50;20.60;63.40
39483;DHT22;25682;48.438;1.482;2022-11-14T12:53:56;20.70;63.30
39483;DHT22;25682;48.438;1.482;2022-11-14T13:15:24;20.60;63.30
39483;DHT22;25682;48.438;1.482;2022-11-14T13:21:03;20.50;63.40
39483;DHT22;25682;48.438;1.482;2022-11-14T13:28:49;20.50;63.50
39483;DHT22;25682;48.438;1.482;2022-11-14T13:33:44;20.40;63.60
39483;DHT22;25682;48.438;1.482;2022-11-14T13:39:12;20.40;63.50
39483;DHT22;25682;48.438;1.482;2022-11-14T13:51:45;20.40;63.40
39483;DHT22;25682;48.438;1.482;2022-11-14T13:54:12;20.40;63.40
39483;DHT22;25682;48.438;1.482;2022-11-14T14:01:56;20.40;63.40
39483;DHT22;25682;48.438;1.482;2022-11-14T14:17:31;20.40;63.40
39483;DHT22;25682;48.438;1.482;2022-11-14T14:28:10;20.40;63.50
39483;DHT22;25682;48.438;1.482;2022-11-14T14:30:39;20.40;63.50
39483;DHT22;25682;48.438;1.482;2022-11-14T14:33:11;20.30;63.40
39483;DHT22;25682;48.438;1.482;2022-11-14T14:35:38;20.30;63.50
39483;DHT22;25682;48.438;1.482;2022-11-14T14:38:12;20.30;63.50
39483;DHT22;25682;48.438;1.482;2022-11-14T14:40:45;20.30;63.50
39483;DHT22;25682;48.438;1.482;2022-11-14T14:43:12;20.30;63.40
39483;DHT22;25682;48.438;1.482;2022-11-14T14:45:47;20.30;63.50
39483;DHT22;25682;48.438;1.482;2022-11-14T14:48:14;20.30;63.50
39483;DHT22;25682;48.438;1.482;2022-11-14T14:50:50;20.30;63.50
39483;DHT22;25682;48.438;1.482;2022-11-14T14:53:20;20.30;63.50
39483;DHT22;25682;48.438;1.482;2022-11-14T14:55:58;20.30;63.60
39483;DHT22;25682;48.438;1.482;2022-11-14T14:58:26;20.30;63.60
39483;DHT22;25682;48.438;1.482;2022-11-14T15:01:12;20.30;63.50
39483;DHT22;25682;48.438;1.482;2022-11-14T15:03:46;20.30;63.60
39483;DHT22;25682;48.438;1.482;2022-11-14T15:08:57;20.30;63.90
39483;DHT22;25682;48.438;1.482;2022-11-14T15:11:24;20.30;64.10
39483;DHT22;25682;48.438;1.482;2022-11-14T15:13:51;20.30;64.20
39483;DHT22;25682;48.438;1.482;2022-11-14T15:16:18;20.30;64.30
39483;DHT22;25682;48.438;1.482;2022-11-14T15:18:44;20.30;64.50
39483;DHT22;25682;48.438;1.482;2022-11-14T15:26:23;20.30;64.40
39483;DHT22;25682;48.438;1.482;2022-11-14T15:28:48;20.30;64.60
39483;DHT22;25682;48.438;1.482;2022-11-14T15:31:15;20.30;64.60
39483;DHT22;25682;48.438;1.482;2022-11-14T15:33:41;20.30;64.70
39483;DHT22;25682;48.438;1.482;2022-11-14T15:38:32;20.30;64.80
39483;DHT22;25682;48.438;1.482;2022-11-14T15:41:08;20.30;64.80
39483;DHT22;25682;48.438;1.482;2022-11-14T15:43:34;20.30;64.80
39483;DHT22;25682;48.438;1.482;2022-11-14T15:46:00;20.30;64.90
39483;DHT22;25682;48.438;1.482;2022-11-14T15:48:26;20.30;65.00
39483;DHT22;25682;48.438;1.482;2022-11-14T15:50:51;20.30;65.00
39483;DHT22;25682;48.438;1.482;2022-11-14T15:53:23;20.30;64.90
39483;DHT22;25682;48.438;1.482;2022-11-14T15:55:49;20.30;64.90
39483;DHT22;25682;48.438;1.482;2022-11-14T15:58:15;20.30;65.00
39483;DHT22;25682;48.438;1.482;2022-11-14T16:00:48;20.30;65.00
39483;DHT22;25682;48.438;1.482;2022-11-14T16:03:16;20.40;65.00
39483;DHT22;25682;48.438;1.482;2022-11-14T16:05:42;20.40;64.90
39483;DHT22;25682;48.438;1.482;2022-11-14T16:08:09;20.40;65.00
39483;DHT22;25682;48.438;1.482;2022-11-14T16:10:34;20.30;65.10
39483;DHT22;25682;48.438;1.482;2022-11-14T16:13:00;20.30;65.10
39483;DHT22;25682;48.438;1.482;2022-11-14T16:15:25;20.30;65.20
39483;DHT22;25682;48.438;1.482;2022-11-14T16:17:51;20.30;65.20
39483;DHT22;25682;48.438;1.482;2022-11-14T16:20:18;20.30;65.30
39483;DHT22;25682;48.438;1.482;2022-11-14T16:22:44;20.30;65.40
39483;DHT22;25682;48.438;1.482;2022-11-14T16:25:14;20.30;65.40
39483;DHT22;25682;48.438;1.482;2022-11-14T16:27:40;20.30;65.50
39483;DHT22;25682;48.438;1.482;2022-11-14T16:30:07;20.30;65.60
39483;DHT22;25682;48.438;1.482;2022-11-14T16:32:32;20.30;65.60
39483;DHT22;25682;48.438;1.482;2022-11-14T16:34:58;20.30;65.70
39483;DHT22;25682;48.438;1.482;2022-11-14T16:37:23;20.30;65.70
39483;DHT22;25682;48.438;1.482;2022-11-14T16:39:49;20.30;65.80
39483;DHT22;25682;48.438;1.482;2022-11-14T16:42:14;20.30;65.80
39483;DHT22;25682;48.438;1.482;2022-11-14T16:44:40;20.30;65.80
39483;DHT22;25682;48.438;1.482;2022-11-14T16:47:05;20.30;65.80
39483;DHT22;25682;48.438;1.482;2022-11-14T16:49:31;20.30;65.80
39483;DHT22;25682;48.438;1.482;2022-11-14T16:51:56;20.30;66.20
39483;DHT22;25682;48.438;1.482;2022-11-14T16:54:27;20.30;66.80
39483;DHT22;25682;48.438;1.482;2022-11-14T16:56:52;20.20;67.60
39483;DHT22;25682;48.438;1.482;2022-11-14T16:59:18;20.10;68.20
39483;DHT22;25682;48.438;1.482;2022-11-14T17:01:43;20.00;68.70
39483;DHT22;25682;48.438;1.482;2022-11-14T17:04:10;20.00;69.00
39483;DHT22;25682;48.438;1.482;2022-11-14T17:06:35;20.00;69.30
39483;DHT22;25682;48.438;1.482;2022-11-14T17:09:01;19.90;69.50
39483;DHT22;25682;48.438;1.482;2022-11-14T17:11:26;19.90;70.30
39483;DHT22;25682;48.438;1.482;2022-11-14T17:13:53;19.90;70.10
39483;DHT22;25682;48.438;1.482;2022-11-14T17:16:18;19.80;70.30
39483;DHT22;25682;48.438;1.482;2022-11-14T17:18:43;19.80;70.50
39483;DHT22;25682;48.438;1.482;2022-11-14T17:21:10;19.80;70.70
39483;DHT22;25682;48.438;1.482;2022-11-14T17:23:35;19.80;70.80
39483;DHT22;25682;48.438;1.482;2022-11-14T17:26:04;19.70;71.00
39483;DHT22;25682;48.438;1.482;2022-11-14T17:28:30;19.70;71.20
39483;DHT22;25682;48.438;1.482;2022-11-14T17:30:55;19.70;71.50
39483;DHT22;25682;48.438;1.482;2022-11-14T17:33:21;19.70;71.70
39483;DHT22;25682;48.438;1.482;2022-11-14T17:35:47;19.60;71.90
39483;DHT22;25682;48.438;1.482;2022-11-14T17:38:12;19.60;72.10
39483;DHT22;25682;48.438;1.482;2022-11-14T17:40:37;19.60;72.20
39483;DHT22;25682;48.438;1.482;2022-11-14T17:43:03;19.60;72.40
39483;DHT22;25682;48.438;1.482;2022-11-14T17:45:29;19.60;73.10
39483;DHT22;25682;48.438;1.482;2022-11-14T17:47:54;19.50;72.70
39483;DHT22;25682;48.438;1.482;2022-11-14T17:50:20;19.50;72.80
39483;DHT22;25682;48.438;1.482;2022-11-14T17:52:45;19.50;72.90
39483;DHT22;25682;48.438;1.482;2022-11-14T17:55:11;19.50;73.00
39483;DHT22;25682;48.438;1.482;2022-11-14T17:57:37;19.50;73.10
39483;DHT22;25682;48.438;1.482;2022-11-14T18:00:03;19.50;73.20
39483;DHT22;25682;48.438;1.482;2022-11-14T18:02:29;19.50;73.30
39483;DHT22;25682;48.438;1.482;2022-11-14T18:04:54;19.50;73.40
39483;DHT22;25682;48.438;1.482;2022-11-14T18:07:20;19.50;73.50
39483;DHT22;25682;48.438;1.482;2022-11-14T18:09:45;19.40;73.50
39483;DHT22;25682;48.438;1.482;2022-11-14T18:12:11;19.40;73.60
39483;DHT22;25682;48.438;1.482;2022-11-14T18:14:36;19.40;73.60
39483;DHT22;25682;48.438;1.482;2022-11-14T18:17:02;19.40;73.70
39483;DHT22;25682;48.438;1.482;2022-11-14T18:19:27;19.40;73.70
39483;DHT22;25682;48.438;1.482;2022-11-14T18:21:53;19.40;73.70
39483;DHT22;25682;48.438;1.482;2022-11-14T18:24:18;19.40;73.70
39483;DHT22;25682;48.438;1.482;2022-11-14T18:26:44;19.40;73.70
39483;DHT22;25682;48.438;1.482;2022-11-14T18:29:09;19.40;73.70
39483;DHT22;25682;48.438;1.482;2022-11-14T18:31:36;19.50;73.80
39483;DHT22;25682;48.438;1.482;2022-11-14T18:34:01;19.40;73.70
39483;DHT22;25682;48.438;1.482;2022-11-14T18:36:27;19.40;73.80
39483;DHT22;25682;48.438;1.482;2022-11-14T18:38:54;19.40;73.80
39483;DHT22;25682;48.438;1.482;2022-11-14T18:41:19;19.40;73.80
39483;DHT22;25682;48.438;1.482;2022-11-14T18:43:45;19.40;73.70
39483;DHT22;25682;48.438;1.482;2022-11-14T18:46:12;19.40;73.90
39483;DHT22;25682;48.438;1.482;2022-11-14T18:48:40;19.40;73.90
39483;DHT22;25682;48.438;1.482;2022-11-14T18:51:08;19.40;74.00
39483;DHT22;25682;48.438;1.482;2022-11-14T18:53:34;19.40;74.00
39483;DHT22;25682;48.438;1.482;2022-11-14T18:56:04;19.40;74.00
39483;DHT22;25682;48.438;1.482;2022-11-14T18:58:29;19.40;74.00
39483;DHT22;25682;48.438;1.482;2022-11-14T19:00:55;19.50;74.10
39483;DHT22;25682;48.438;1.482;2022-11-14T19:03:20;19.40;74.00
39483;DHT22;25682;48.438;1.482;2022-11-14T19:05:46;19.50;74.20
39483;DHT22;25682;48.438;1.482;2022-11-14T19:08:11;19.40;74.10
39483;DHT22;25682;48.438;1.482;2022-11-14T19:10:37;19.40;74.20
39483;DHT22;25682;48.438;1.482;2022-11-14T19:13:02;19.40;74.80
39483;DHT22;25682;48.438;1.482;2022-11-14T19:15:28;19.50;74.30
39483;DHT22;25682;48.438;1.482;2022-11-14T19:17:53;19.50;74.30
39483;DHT22;25682;48.438;1.482;2022-11-14T19:20:19;19.50;74.50
39483;DHT22;25682;48.438;1.482;2022-11-14T19:22:44;19.50;74.60
39483;DHT22;25682;48.438;1.482;2022-11-14T19:25:10;19.60;74.70
39483;DHT22;25682;48.438;1.482;2022-11-14T19:27:35;19.60;74.80
39483;DHT22;25682;48.438;1.482;2022-11-14T19:30:01;19.60;74.80
39483;DHT22;25682;48.438;1.482;2022-11-14T19:32:27;19.70;74.70
39483;DHT22;25682;48.438;1.482;2022-11-14T19:34:52;19.70;74.10
39483;DHT22;25682;48.438;1.482;2022-11-14T19:37:18;19.70;73.50
39483;DHT22;25682;48.438;1.482;2022-11-14T19:39:43;19.80;73.10
39483;DHT22;25682;48.438;1.482;2022-11-14T19:42:09;19.90;72.70
39483;DHT22;25682;48.438;1.482;2022-11-14T19:44:34;19.90;72.40
39483;DHT22;25682;48.438;1.482;2022-11-14T19:47:00;19.90;72.00
39483;DHT22;25682;48.438;1.482;2022-11-14T19:49:25;20.00;71.80
39483;DHT22;25682;48.438;1.482;2022-11-14T19:51:50;20.00;71.50
39483;DHT22;25682;48.438;1.482;2022-11-14T19:54:16;20.00;71.30
39483;DHT22;25682;48.438;1.482;2022-11-14T19:56:42;20.00;71.10
39483;DHT22;25682;48.438;1.482;2022-11-14T19:59:07;20.10;71.00
39483;DHT22;25682;48.438;1.482;2022-11-14T20:01:33;20.00;70.80
39483;DHT22;25682;48.438;1.482;2022-11-14T20:03:59;20.10;70.70
39483;DHT22;25682;48.438;1.482;2022-11-14T20:06:30;20.10;70.60
39483;DHT22;25682;48.438;1.482;2022-11-14T20:08:56;20.10;70.50
39483;DHT22;25682;48.438;1.482;2022-11-14T20:11:22;20.10;70.40
39483;DHT22;25682;48.438;1.482;2022-11-14T20:13:50;20.10;70.30
39483;DHT22;25682;48.438;1.482;2022-11-14T20:16:16;20.10;70.20
39483;DHT22;25682;48.438;1.482;2022-11-14T20:18:42;20.10;70.10
39483;DHT22;25682;48.438;1.482;2022-11-14T20:21:17;20.10;70.00
39483;DHT22;25682;48.438;1.482;2022-11-14T20:23:42;20.10;69.80
39483;DHT22;25682;48.438;1.482;2022-11-14T20:26:08;20.10;69.70
39483;DHT22;25682;48.438;1.482;2022-11-14T20:28:34;20.10;69.60
39483;DHT22;25682;48.438;1.482;2022-11-14T20:31:00;20.10;69.40
39483;DHT22;25682;48.438;1.482;2022-11-14T20:33:27;20.10;69.30
39483;DHT22;25682;48.438;1.482;2022-11-14T20:35:53;20.10;69.80
39483;DHT22;25682;48.438;1.482;2022-11-14T20:38:18;20.10;69.10
39483;DHT22;25682;48.438;1.482;2022-11-14T20:40:51;20.10;69.00
39483;DHT22;25682;48.438;1.482;2022-11-14T20:43:16;20.10;68.90
39483;DHT22;25682;48.438;1.482;2022-11-14T20:45:42;20.10;68.70
39483;DHT22;25682;48.438;1.482;2022-11-14T20:48:18;20.10;68.60
39483;DHT22;25682;48.438;1.482;2022-11-14T20:50:43;20.10;68.50
39483;DHT22;25682;48.438;1.482;2022-11-14T20:53:09;20.10;68.30
39483;DHT22;25682;48.438;1.482;2022-11-14T20:55:34;20.20;68.30
39483;DHT22;25682;48.438;1.482;2022-11-14T20:58:00;20.20;68.10
39483;DHT22;25682;48.438;1.482;2022-11-14T21:00:25;20.10;68.00
39483;DHT22;25682;48.438;1.482;2022-11-14T21:02:51;20.20;67.90
39483;DHT22;25682;48.438;1.482;2022-11-14T21:05:17;20.20;67.80
39483;DHT22;25682;48.438;1.482;2022-11-14T21:07:43;20.10;67.70
39483;DHT22;25682;48.438;1.482;2022-11-14T21:10:08;20.10;67.70
39483;DHT22;25682;48.438;1.482;2022-11-14T21:12:52;20.20;67.70
39483;DHT22;25682;48.438;1.482;2022-11-14T21:15:38;20.20;67.50
39483;DHT22;25682;48.438;1.482;2022-11-14T21:18:04;20.20;67.50
39483;DHT22;25682;48.438;1.482;2022-11-14T21:20:29;20.20;67.40
39483;DHT22;25682;48.438;1.482;2022-11-14T21:22:55;20.20;67.30
39483;DHT22;25682;48.438;1.482;2022-11-14T21:25:21;20.20;67.30
39483;DHT22;25682;48.438;1.482;2022-11-14T21:27:46;20.20;67.20
39483;DHT22;25682;48.438;1.482;2022-11-14T21:30:12;20.20;67.80
39483;DHT22;25682;48.438;1.482;2022-11-14T21:32:37;20.20;67.80
39483;DHT22;25682;48.438;1.482;2022-11-14T21:35:03;20.20;67.30
39483;DHT22;25682;48.438;1.482;2022-11-14T21:37:28;20.20;67.40
39483;DHT22;25682;48.438;1.482;2022-11-14T21:39:54;20.20;67.40
39483;DHT22;25682;48.438;1.482;2022-11-14T21:42:21;20.20;67.40
39483;DHT22;25682;48.438;1.482;2022-11-14T21:44:46;20.20;67.50
39483;DHT22;25682;48.438;1.482;2022-11-14T21:47:12;20.10;67.50
39483;DHT22;25682;48.438;1.482;2022-11-14T21:49:37;20.10;67.50
39483;DHT22;25682;48.438;1.482;2022-11-14T21:52:03;20.10;67.60
39483;DHT22;25682;48.438;1.482;2022-11-14T21:54:28;20.10;67.60
39483;DHT22;25682;48.438;1.482;2022-11-14T21:56:54;20.10;67.60
39483;DHT22;25682;48.438;1.482;2022-11-14T21:59:20;20.10;67.60
39483;DHT22;25682;48.438;1.482;2022-11-14T22:01:50;20.10;67.70
39483;DHT22;25682;48.438;1.482;2022-11-14T22:04:34;20.10;67.70
39483;DHT22;25682;48.438;1.482;2022-11-14T22:07:01;20.10;67.60
39483;DHT22;25682;48.438;1.482;2022-11-14T22:09:27;20.10;67.60
39483;DHT22;25682;48.438;1.482;2022-11-14T22:11:53;20.10;67.60
39483;DHT22;25682;48.438;1.482;2022-11-14T22:14:18;20.10;67.60
39483;DHT22;25682;48.438;1.482;2022-11-14T22:16:44;20.10;67.60
39483;DHT22;25682;48.438;1.482;2022-11-14T22:19:09;20.20;67.50
39483;DHT22;25682;48.438;1.482;2022-11-14T22:21:35;20.10;67.40
39483;DHT22;25682;48.438;1.482;2022-11-14T22:24:00;20.10;67.40
39483;DHT22;25682;48.438;1.482;2022-11-14T22:26:26;20.10;67.30
39483;DHT22;25682;48.438;1.482;2022-11-14T22:28:51;20.10;67.30
39483;DHT22;25682;48.438;1.482;2022-11-14T22:31:17;20.10;67.30
39483;DHT22;25682;48.438;1.482;2022-11-14T22:33:44;20.10;67.20
39483;DHT22;25682;48.438;1.482;2022-11-14T22:38:35;20.10;67.00
39483;DHT22;25682;48.438;1.482;2022-11-14T22:41:01;20.10;67.00
39483;DHT22;25682;48.438;1.482;2022-11-14T22:43:28;20.10;66.90
39483;DHT22;25682;48.438;1.482;2022-11-14T22:45:57;20.10;66.90
39483;DHT22;25682;48.438;1.482;2022-11-14T22:48:23;20.10;66.80
39483;DHT22;25682;48.438;1.482;2022-11-14T22:51:06;20.10;66.80
39483;DHT22;25682;48.438;1.482;2022-11-14T22:53:32;20.10;66.80
39483;DHT22;25682;48.438;1.482;2022-11-14T22:55:58;20.10;66.70
39483;DHT22;25682;48.438;1.482;2022-11-14T22:58:23;20.10;66.60
39483;DHT22;25682;48.438;1.482;2022-11-14T23:00:50;20.10;66.60
39483;DHT22;25682;48.438;1.482;2022-11-14T23:03:16;20.10;66.50
39483;DHT22;25682;48.438;1.482;2022-11-14T23:05:42;20.10;66.50
39483;DHT22;25682;48.438;1.482;2022-11-14T23:08:08;20.00;66.40
39483;DHT22;25682;48.438;1.482;2022-11-14T23:10:33;20.00;66.50
39483;DHT22;25682;48.438;1.482;2022-11-14T23:12:59;20.00;66.50
39483;DHT22;25682;48.438;1.482;2022-11-14T23:15:24;20.00;66.50
39483;DHT22;25682;48.438;1.482;2022-11-14T23:17:51;20.00;66.40
39483;DHT22;25682;48.438;1.482;2022-11-14T23:20:16;20.00;66.40
39483;DHT22;25682;48.438;1.482;2022-11-14T23:22:42;20.00;66.30
39483;DHT22;25682;48.438;1.482;2022-11-14T23:25:07;20.00;66.30
39483;DHT22;25682;48.438;1.482;2022-11-14T23:27:33;20.00;66.30
39483;DHT22;25682;48.438;1.482;2022-11-14T23:29:58;20.00;66.20
39483;DHT22;25682;48.438;1.482;2022-11-14T23:32:27;20.00;66.20
39483;DHT22;25682;48.438;1.482;2022-11-14T23:34:53;19.90;66.10
39483;DHT22;25682;48.438;1.482;2022-11-14T23:37:18;20.00;66.10
39483;DHT22;25682;48.438;1.482;2022-11-14T23:39:44;20.00;66.10
39483;DHT22;25682;48.438;1.482;2022-11-14T23:42:09;19.90;66.00
39483;DHT22;25682;48.438;1.482;2022-11-14T23:44:35;20.00;66.10
39483;DHT22;25682;48.438;1.482;2022-11-14T23:47:00;20.00;66.00
39483;DHT22;25682;48.438;1.482;2022-11-14T23:49:26;19.90;65.90
39483;DHT22;25682;48.438;1.482;2022-11-14T23:51:51;19.90;65.90
39483;DHT22;25682;48.438;1.482;2022-11-14T23:54:17;19.90;65.80
39483;DHT22;25682;48.438;1.482;2022-11-14T23:56:42;19.90;65.80
39483;DHT22;25682;48.438;1.482;2022-11-14T23:59:09;19.90;65.80
